Ana Sayfa
METAR-TAF:

METAR-TAF

Havaalanları :

Hope, İngiliz Kolombiyası, Kanada

Enlem: 49-22N, Boylam: 121-29W, yükseklik: 39 m

Güncel hava durumu gözlemi

Rapor saat 01:49 UTC de 15 dakika önce yapıldı.
Sakin rüzgar
Sıcaklık 6°C
Nem 100%
Basınç 1028 hPa
Görüş mesafesi: 8.0 km
7000 ft yükseklikte çok bulutlu
Pus

METAR: CYHE 280149Z AUTO 00000KT 5SM BR OVC070 06/06 A3035 RMK SLP281

Saat: 18:04 (02:04 UTC)


TAF: eksik

4.000'den fazla havaalanı için hava durumu gözlemleri ve tahminleri (METAR ve TAF raporları).

Kullanılabilir istasyonlar harita üzerinde sarı ve kırmızı noktalarla gösterilir.

İstasyonun adını görmek için fareyi noktanın üzerinde gezdirin.

Sonrasında hava gözlem ve tahminlerini görmek için tıklayın.

Haritayı değiştirmek için: yaklaştırmak için siyah artı işaretli yeşil düğmeye ve uzaklaştırmak için de eksi işaretli düğmeye hızla tıklayın; bitişik haritalar için yeşil okları kullanın.


METAR-TAF: